sensor_id;sensor_type;location;lat;lon;timestamp;P1;durP1;ratioP1;P2;durP2;ratioP2
28483;SDS011;15704;48.834;8.736;2023-04-25T00:02:09;4.65;;;3.20;;
28483;SDS011;15704;48.834;8.736;2023-04-25T00:04:36;9.13;;;3.50;;
28483;SDS011;15704;48.834;8.736;2023-04-25T00:07:04;4.75;;;3.25;;
28483;SDS011;15704;48.834;8.736;2023-04-25T00:09:31;5.70;;;3.67;;
28483;SDS011;15704;48.834;8.736;2023-04-25T00:11:58;7.53;;;3.42;;
28483;SDS011;15704;48.834;8.736;2023-04-25T00:14:27;6.35;;;3.33;;
28483;SDS011;15704;48.834;8.736;2023-04-25T00:16:54;6.95;;;3.33;;
28483;SDS011;15704;48.834;8.736;2023-04-25T00:19:22;6.88;;;3.08;;
28483;SDS011;15704;48.834;8.736;2023-04-25T00:21:55;7.32;;;4.45;;
28483;SDS011;15704;48.834;8.736;2023-04-25T00:24:22;7.90;;;3.17;;
28483;SDS011;15704;48.834;8.736;2023-04-25T00:26:48;8.90;;;4.03;;
28483;SDS011;15704;48.834;8.736;2023-04-25T00:29:15;5.40;;;3.70;;
28483;SDS011;15704;48.834;8.736;2023-04-25T00:31:42;10.77;;;3.60;;
28483;SDS011;15704;48.834;8.736;2023-04-25T00:34:09;5.38;;;3.25;;
28483;SDS011;15704;48.834;8.736;2023-04-25T00:36:35;5.40;;;3.13;;
28483;SDS011;15704;48.834;8.736;2023-04-25T00:39:02;7.18;;;3.47;;
28483;SDS011;15704;48.834;8.736;2023-04-25T00:41:30;5.53;;;3.58;;
28483;SDS011;15704;48.834;8.736;2023-04-25T00:43:57;7.55;;;3.05;;
28483;SDS011;15704;48.834;8.736;2023-04-25T00:46:25;8.57;;;3.65;;
28483;SDS011;15704;48.834;8.736;2023-04-25T00:48:52;6.25;;;3.35;;
28483;SDS011;15704;48.834;8.736;2023-04-25T00:51:19;4.15;;;2.63;;
28483;SDS011;15704;48.834;8.736;2023-04-25T00:53:47;6.13;;;3.13;;
28483;SDS011;15704;48.834;8.736;2023-04-25T00:56:16;4.15;;;2.70;;
28483;SDS011;15704;48.834;8.736;2023-04-25T00:58:43;9.63;;;2.72;;
28483;SDS011;15704;48.834;8.736;2023-04-25T01:01:16;2.70;;;2.00;;
28483;SDS011;15704;48.834;8.736;2023-04-25T01:04:10;3.85;;;2.00;;
28483;SDS011;15704;48.834;8.736;2023-04-25T01:06:37;4.78;;;1.95;;
28483;SDS011;15704;48.834;8.736;2023-04-25T01:09:04;5.25;;;2.30;;
28483;SDS011;15704;48.834;8.736;2023-04-25T01:11:31;4.68;;;2.25;;
28483;SDS011;15704;48.834;8.736;2023-04-25T01:13:58;5.47;;;2.63;;
28483;SDS011;15704;48.834;8.736;2023-04-25T01:16:25;4.60;;;2.45;;
28483;SDS011;15704;48.834;8.736;2023-04-25T01:18:55;3.55;;;2.30;;
28483;SDS011;15704;48.834;8.736;2023-04-25T01:21:25;4.00;;;2.38;;
28483;SDS011;15704;48.834;8.736;2023-04-25T01:23:54;6.05;;;2.88;;
28483;SDS011;15704;48.834;8.736;2023-04-25T01:26:21;3.35;;;2.22;;
28483;SDS011;15704;48.834;8.736;2023-04-25T01:28:48;4.45;;;2.35;;
28483;SDS011;15704;48.834;8.736;2023-04-25T01:31:15;8.82;;;2.40;;
28483;SDS011;15704;48.834;8.736;2023-04-25T01:33:44;8.63;;;4.68;;
28483;SDS011;15704;48.834;8.736;2023-04-25T01:36:12;3.63;;;2.35;;
28483;SDS011;15704;48.834;8.736;2023-04-25T01:38:40;5.28;;;2.78;;
28483;SDS011;15704;48.834;8.736;2023-04-25T01:41:08;9.68;;;3.25;;
28483;SDS011;15704;48.834;8.736;2023-04-25T01:43:35;4.07;;;2.80;;
28483;SDS011;15704;48.834;8.736;2023-04-25T01:46:04;5.32;;;2.60;;
28483;SDS011;15704;48.834;8.736;2023-04-25T01:48:37;6.55;;;2.75;;
28483;SDS011;15704;48.834;8.736;2023-04-25T01:51:04;3.60;;;2.67;;
28483;SDS011;15704;48.834;8.736;2023-04-25T01:53:30;8.50;;;3.30;;
28483;SDS011;15704;48.834;8.736;2023-04-25T01:55:57;7.75;;;3.00;;
28483;SDS011;15704;48.834;8.736;2023-04-25T01:58:24;5.50;;;3.45;;
28483;SDS011;15704;48.834;8.736;2023-04-25T02:00:51;6.15;;;3.75;;
28483;SDS011;15704;48.834;8.736;2023-04-25T02:03:18;8.70;;;3.55;;
28483;SDS011;15704;48.834;8.736;2023-04-25T02:05:45;6.45;;;3.63;;
28483;SDS011;15704;48.834;8.736;2023-04-25T02:08:15;5.97;;;3.97;;
28483;SDS011;15704;48.834;8.736;2023-04-25T02:10:46;5.13;;;3.60;;
28483;SDS011;15704;48.834;8.736;2023-04-25T02:13:12;5.13;;;3.75;;
28483;SDS011;15704;48.834;8.736;2023-04-25T02:15:39;7.55;;;3.80;;
28483;SDS011;15704;48.834;8.736;2023-04-25T02:18:07;8.82;;;5.30;;
28483;SDS011;15704;48.834;8.736;2023-04-25T02:20:39;8.70;;;4.45;;
28483;SDS011;15704;48.834;8.736;2023-04-25T02:23:15;12.13;;;6.72;;
28483;SDS011;15704;48.834;8.736;2023-04-25T02:25:42;22.67;;;11.90;;
28483;SDS011;15704;48.834;8.736;2023-04-25T02:28:09;14.70;;;7.90;;
28483;SDS011;15704;48.834;8.736;2023-04-25T02:30:36;11.82;;;5.38;;
28483;SDS011;15704;48.834;8.736;2023-04-25T02:33:03;9.57;;;4.88;;
28483;SDS011;15704;48.834;8.736;2023-04-25T02:35:30;13.82;;;5.47;;
28483;SDS011;15704;48.834;8.736;2023-04-25T02:37:57;7.38;;;5.10;;
28483;SDS011;15704;48.834;8.736;2023-04-25T02:40:24;11.50;;;5.93;;
28483;SDS011;15704;48.834;8.736;2023-04-25T02:42:51;11.05;;;6.28;;
28483;SDS011;15704;48.834;8.736;2023-04-25T02:45:18;9.05;;;5.88;;
28483;SDS011;15704;48.834;8.736;2023-04-25T02:47:44;9.60;;;5.93;;
28483;SDS011;15704;48.834;8.736;2023-04-25T02:50:11;9.93;;;6.22;;
28483;SDS011;15704;48.834;8.736;2023-04-25T02:52:38;10.85;;;6.38;;
28483;SDS011;15704;48.834;8.736;2023-04-25T02:55:05;13.32;;;6.68;;
28483;SDS011;15704;48.834;8.736;2023-04-25T02:57:32;19.25;;;6.82;;
28483;SDS011;15704;48.834;8.736;2023-04-25T02:59:58;11.98;;;6.40;;
28483;SDS011;15704;48.834;8.736;2023-04-25T03:02:25;9.25;;;6.18;;
28483;SDS011;15704;48.834;8.736;2023-04-25T03:04:52;14.98;;;7.03;;
28483;SDS011;15704;48.834;8.736;2023-04-25T03:07:19;14.80;;;8.25;;
28483;SDS011;15704;48.834;8.736;2023-04-25T03:09:46;11.60;;;6.00;;
28483;SDS011;15704;48.834;8.736;2023-04-25T03:12:13;8.75;;;6.00;;
28483;SDS011;15704;48.834;8.736;2023-04-25T03:14:39;11.10;;;6.05;;
28483;SDS011;15704;48.834;8.736;2023-04-25T03:17:15;11.25;;;6.40;;
28483;SDS011;15704;48.834;8.736;2023-04-25T03:19:42;9.52;;;5.88;;
28483;SDS011;15704;48.834;8.736;2023-04-25T03:22:08;9.48;;;6.28;;
28483;SDS011;15704;48.834;8.736;2023-04-25T03:24:35;9.90;;;5.53;;
28483;SDS011;15704;48.834;8.736;2023-04-25T03:27:03;7.57;;;5.57;;
28483;SDS011;15704;48.834;8.736;2023-04-25T03:29:30;9.30;;;5.80;;
28483;SDS011;15704;48.834;8.736;2023-04-25T03:31:56;18.05;;;6.50;;
28483;SDS011;15704;48.834;8.736;2023-04-25T03:34:29;7.65;;;5.57;;
28483;SDS011;15704;48.834;8.736;2023-04-25T03:37:07;15.70;;;5.93;;
28483;SDS011;15704;48.834;8.736;2023-04-25T03:39:34;11.88;;;5.97;;
28483;SDS011;15704;48.834;8.736;2023-04-25T03:42:00;10.38;;;6.13;;
28483;SDS011;15704;48.834;8.736;2023-04-25T03:44:29;10.80;;;6.05;;
28483;SDS011;15704;48.834;8.736;2023-04-25T03:46:56;9.23;;;6.18;;
28483;SDS011;15704;48.834;8.736;2023-04-25T03:49:22;8.02;;;5.32;;
28483;SDS011;15704;48.834;8.736;2023-04-25T03:51:49;8.10;;;5.10;;
28483;SDS011;15704;48.834;8.736;2023-04-25T03:54:16;8.35;;;5.47;;
28483;SDS011;15704;48.834;8.736;2023-04-25T03:56:53;6.50;;;4.93;;
28483;SDS011;15704;48.834;8.736;2023-04-25T03:59:25;8.38;;;5.22;;
28483;SDS011;15704;48.834;8.736;2023-04-25T04:01:52;11.13;;;5.45;;
28483;SDS011;15704;48.834;8.736;2023-04-25T04:04:19;6.65;;;5.05;;
28483;SDS011;15704;48.834;8.736;2023-04-25T04:06:46;6.82;;;5.00;;
28483;SDS011;15704;48.834;8.736;2023-04-25T04:09:13;6.63;;;4.63;;
28483;SDS011;15704;48.834;8.736;2023-04-25T04:11:39;11.98;;;5.63;;
28483;SDS011;15704;48.834;8.736;2023-04-25T04:14:06;9.38;;;5.05;;
28483;SDS011;15704;48.834;8.736;2023-04-25T04:16:34;8.18;;;5.10;;
28483;SDS011;15704;48.834;8.736;2023-04-25T04:19:02;8.15;;;4.85;;
28483;SDS011;15704;48.834;8.736;2023-04-25T04:21:29;10.10;;;4.85;;
28483;SDS011;15704;48.834;8.736;2023-04-25T04:23:56;11.55;;;5.15;;
28483;SDS011;15704;48.834;8.736;2023-04-25T04:26:23;7.68;;;4.35;;
28483;SDS011;15704;48.834;8.736;2023-04-25T04:28:52;7.75;;;5.03;;
28483;SDS011;15704;48.834;8.736;2023-04-25T04:31:20;7.40;;;4.65;;
28483;SDS011;15704;48.834;8.736;2023-04-25T04:33:48;4.72;;;3.97;;
28483;SDS011;15704;48.834;8.736;2023-04-25T04:36:15;4.28;;;3.20;;
28483;SDS011;15704;48.834;8.736;2023-04-25T04:38:42;16.70;;;4.32;;
28483;SDS011;15704;48.834;8.736;2023-04-25T04:41:08;9.80;;;3.75;;
28483;SDS011;15704;48.834;8.736;2023-04-25T04:43:35;7.63;;;3.95;;
28483;SDS011;15704;48.834;8.736;2023-04-25T04:46:03;4.80;;;3.60;;
28483;SDS011;15704;48.834;8.736;2023-04-25T04:48:33;6.47;;;3.67;;
28483;SDS011;15704;48.834;8.736;2023-04-25T04:51:00;6.25;;;3.30;;
28483;SDS011;15704;48.834;8.736;2023-04-25T04:53:27;6.60;;;3.65;;
28483;SDS011;15704;48.834;8.736;2023-04-25T04:55:54;6.38;;;3.80;;
28483;SDS011;15704;48.834;8.736;2023-04-25T04:58:21;4.65;;;3.30;;
28483;SDS011;15704;48.834;8.736;2023-04-25T05:00:48;5.78;;;3.33;;
28483;SDS011;15704;48.834;8.736;2023-04-25T05:03:15;5.45;;;3.45;;
28483;SDS011;15704;48.834;8.736;2023-04-25T05:05:42;6.45;;;3.47;;
28483;SDS011;15704;48.834;8.736;2023-04-25T05:08:09;4.30;;;3.08;;
28483;SDS011;15704;48.834;8.736;2023-04-25T05:10:36;28.55;;;15.90;;
28483;SDS011;15704;48.834;8.736;2023-04-25T05:13:03;32.72;;;18.08;;
28483;SDS011;15704;48.834;8.736;2023-04-25T05:15:30;16.08;;;10.27;;
28483;SDS011;15704;48.834;8.736;2023-04-25T05:17:56;12.60;;;7.60;;
28483;SDS011;15704;48.834;8.736;2023-04-25T05:20:23;10.90;;;5.82;;
28483;SDS011;15704;48.834;8.736;2023-04-25T05:22:50;9.38;;;4.75;;
28483;SDS011;15704;48.834;8.736;2023-04-25T05:25:17;8.07;;;4.30;;
28483;SDS011;15704;48.834;8.736;2023-04-25T05:27:47;7.07;;;4.00;;
28483;SDS011;15704;48.834;8.736;2023-04-25T05:30:13;6.22;;;4.22;;
28483;SDS011;15704;48.834;8.736;2023-04-25T05:32:40;4.38;;;3.40;;
28483;SDS011;15704;48.834;8.736;2023-04-25T05:35:07;6.32;;;3.85;;
28483;SDS011;15704;48.834;8.736;2023-04-25T05:37:35;7.18;;;3.75;;
28483;SDS011;15704;48.834;8.736;2023-04-25T05:40:02;5.40;;;3.88;;
28483;SDS011;15704;48.834;8.736;2023-04-25T05:42:40;5.90;;;3.60;;
28483;SDS011;15704;48.834;8.736;2023-04-25T05:45:07;10.50;;;4.47;;
28483;SDS011;15704;48.834;8.736;2023-04-25T05:47:34;5.68;;;4.32;;
28483;SDS011;15704;48.834;8.736;2023-04-25T05:50:01;6.32;;;3.80;;
28483;SDS011;15704;48.834;8.736;2023-04-25T05:52:28;6.30;;;3.40;;
28483;SDS011;15704;48.834;8.736;2023-04-25T05:54:54;4.40;;;3.00;;
28483;SDS011;15704;48.834;8.736;2023-04-25T05:57:25;4.85;;;3.55;;
28483;SDS011;15704;48.834;8.736;2023-04-25T05:59:52;4.10;;;3.38;;
28483;SDS011;15704;48.834;8.736;2023-04-25T06:02:20;6.90;;;3.75;;
28483;SDS011;15704;48.834;8.736;2023-04-25T06:04:49;5.40;;;3.60;;
28483;SDS011;15704;48.834;8.736;2023-04-25T06:07:23;9.32;;;3.60;;
28483;SDS011;15704;48.834;8.736;2023-04-25T06:09:50;3.75;;;3.10;;
28483;SDS011;15704;48.834;8.736;2023-04-25T06:12:17;8.15;;;3.60;;
28483;SDS011;15704;48.834;8.736;2023-04-25T06:14:43;14.77;;;7.00;;
28483;SDS011;15704;48.834;8.736;2023-04-25T06:17:10;18.40;;;8.80;;
28483;SDS011;15704;48.834;8.736;2023-04-25T06:19:37;10.88;;;5.32;;
28483;SDS011;15704;48.834;8.736;2023-04-25T06:22:04;6.60;;;3.50;;
28483;SDS011;15704;48.834;8.736;2023-04-25T06:24:30;7.40;;;3.55;;
28483;SDS011;15704;48.834;8.736;2023-04-25T06:26:57;8.52;;;3.97;;
28483;SDS011;15704;48.834;8.736;2023-04-25T06:29:24;6.18;;;3.92;;
28483;SDS011;15704;48.834;8.736;2023-04-25T06:31:53;6.30;;;3.50;;
28483;SDS011;15704;48.834;8.736;2023-04-25T06:34:20;5.63;;;3.55;;
28483;SDS011;15704;48.834;8.736;2023-04-25T06:36:47;5.72;;;3.92;;
28483;SDS011;15704;48.834;8.736;2023-04-25T06:39:13;4.90;;;3.15;;
28483;SDS011;15704;48.834;8.736;2023-04-25T06:41:40;5.80;;;4.10;;
28483;SDS011;15704;48.834;8.736;2023-04-25T06:44:07;4.75;;;3.30;;
28483;SDS011;15704;48.834;8.736;2023-04-25T06:46:33;9.77;;;4.53;;
28483;SDS011;15704;48.834;8.736;2023-04-25T06:49:00;8.68;;;3.78;;
28483;SDS011;15704;48.834;8.736;2023-04-25T06:51:27;7.93;;;4.10;;
28483;SDS011;15704;48.834;8.736;2023-04-25T06:53:55;9.55;;;4.75;;
28483;SDS011;15704;48.834;8.736;2023-04-25T06:56:22;6.63;;;3.83;;
28483;SDS011;15704;48.834;8.736;2023-04-25T06:58:49;4.30;;;3.22;;
28483;SDS011;15704;48.834;8.736;2023-04-25T07:01:20;5.28;;;3.97;;
28483;SDS011;15704;48.834;8.736;2023-04-25T07:03:46;5.75;;;3.55;;
28483;SDS011;15704;48.834;8.736;2023-04-25T07:06:13;6.57;;;3.25;;
28483;SDS011;15704;48.834;8.736;2023-04-25T07:08:40;7.03;;;3.50;;
28483;SDS011;15704;48.834;8.736;2023-04-25T07:11:07;4.88;;;3.30;;
28483;SDS011;15704;48.834;8.736;2023-04-25T07:13:34;5.07;;;3.42;;
28483;SDS011;15704;48.834;8.736;2023-04-25T07:16:00;4.82;;;3.13;;
28483;SDS011;15704;48.834;8.736;2023-04-25T07:18:33;6.93;;;4.03;;
28483;SDS011;15704;48.834;8.736;2023-04-25T07:21:00;7.97;;;4.43;;
28483;SDS011;15704;48.834;8.736;2023-04-25T07:23:27;7.15;;;4.32;;
28483;SDS011;15704;48.834;8.736;2023-04-25T07:25:54;7.90;;;4.85;;
28483;SDS011;15704;48.834;8.736;2023-04-25T07:28:20;6.20;;;4.25;;
28483;SDS011;15704;48.834;8.736;2023-04-25T07:30:47;5.25;;;3.90;;
28483;SDS011;15704;48.834;8.736;2023-04-25T07:33:14;5.28;;;3.55;;
28483;SDS011;15704;48.834;8.736;2023-04-25T07:35:41;4.63;;;3.08;;
28483;SDS011;15704;48.834;8.736;2023-04-25T07:38:07;5.75;;;3.88;;
28483;SDS011;15704;48.834;8.736;2023-04-25T07:40:36;10.75;;;5.10;;
28483;SDS011;15704;48.834;8.736;2023-04-25T07:43:03;7.00;;;3.83;;
28483;SDS011;15704;48.834;8.736;2023-04-25T07:45:29;7.45;;;4.00;;
28483;SDS011;15704;48.834;8.736;2023-04-25T07:47:56;4.80;;;3.42;;
28483;SDS011;15704;48.834;8.736;2023-04-25T07:50:23;6.63;;;4.40;;
28483;SDS011;15704;48.834;8.736;2023-04-25T07:52:50;7.35;;;3.90;;
28483;SDS011;15704;48.834;8.736;2023-04-25T07:55:17;9.13;;;4.10;;
28483;SDS011;15704;48.834;8.736;2023-04-25T07:57:43;5.55;;;3.88;;
28483;SDS011;15704;48.834;8.736;2023-04-25T08:00:10;7.53;;;4.20;;
28483;SDS011;15704;48.834;8.736;2023-04-25T08:02:38;6.72;;;4.15;;
28483;SDS011;15704;48.834;8.736;2023-04-25T08:05:05;5.70;;;4.22;;
28483;SDS011;15704;48.834;8.736;2023-04-25T08:07:34;5.20;;;3.42;;
28483;SDS011;15704;48.834;8.736;2023-04-25T08:10:01;4.53;;;3.78;;
28483;SDS011;15704;48.834;8.736;2023-04-25T08:12:28;5.85;;;3.70;;
28483;SDS011;15704;48.834;8.736;2023-04-25T08:14:55;4.68;;;3.83;;
28483;SDS011;15704;48.834;8.736;2023-04-25T08:17:22;5.15;;;3.50;;
28483;SDS011;15704;48.834;8.736;2023-04-25T08:19:49;9.98;;;3.80;;
28483;SDS011;15704;48.834;8.736;2023-04-25T08:22:25;7.53;;;4.55;;
28483;SDS011;15704;48.834;8.736;2023-04-25T08:24:55;5.75;;;3.65;;
28483;SDS011;15704;48.834;8.736;2023-04-25T08:27:21;4.30;;;2.95;;
28483;SDS011;15704;48.834;8.736;2023-04-25T08:29:48;4.18;;;3.15;;
28483;SDS011;15704;48.834;8.736;2023-04-25T08:32:16;4.35;;;3.00;;
28483;SDS011;15704;48.834;8.736;2023-04-25T08:34:43;7.05;;;2.65;;
28483;SDS011;15704;48.834;8.736;2023-04-25T08:37:10;5.65;;;2.80;;
28483;SDS011;15704;48.834;8.736;2023-04-25T08:39:37;3.90;;;2.90;;
28483;SDS011;15704;48.834;8.736;2023-04-25T08:42:05;4.05;;;2.92;;
28483;SDS011;15704;48.834;8.736;2023-04-25T08:47:10;3.50;;;2.13;;
28483;SDS011;15704;48.834;8.736;2023-04-25T08:49:37;3.00;;;1.63;;
28483;SDS011;15704;48.834;8.736;2023-04-25T08:52:20;3.65;;;1.77;;
28483;SDS011;15704;48.834;8.736;2023-04-25T08:54:48;4.50;;;2.15;;
28483;SDS011;15704;48.834;8.736;2023-04-25T08:57:23;3.42;;;1.85;;
28483;SDS011;15704;48.834;8.736;2023-04-25T08:59:50;2.70;;;2.00;;
28483;SDS011;15704;48.834;8.736;2023-04-25T09:02:21;3.28;;;2.35;;
28483;SDS011;15704;48.834;8.736;2023-04-25T09:04:50;4.25;;;1.83;;
28483;SDS011;15704;48.834;8.736;2023-04-25T09:07:17;2.72;;;2.10;;
28483;SDS011;15704;48.834;8.736;2023-04-25T09:09:47;2.28;;;1.63;;
28483;SDS011;15704;48.834;8.736;2023-04-25T09:12:14;2.28;;;1.83;;
28483;SDS011;15704;48.834;8.736;2023-04-25T09:14:40;2.97;;;1.80;;
28483;SDS011;15704;48.834;8.736;2023-04-25T09:17:09;3.28;;;2.10;;
28483;SDS011;15704;48.834;8.736;2023-04-25T09:19:36;2.67;;;2.10;;
28483;SDS011;15704;48.834;8.736;2023-04-25T09:22:07;3.35;;;2.70;;
28483;SDS011;15704;48.834;8.736;2023-04-25T09:27:07;1.13;;;1.00;;
28483;SDS011;15704;48.834;8.736;2023-04-25T09:29:39;2.45;;;1.70;;
28483;SDS011;15704;48.834;8.736;2023-04-25T09:34:48;5.93;;;3.33;;
28483;SDS011;15704;48.834;8.736;2023-04-25T09:37:17;1.38;;;1.27;;
28483;SDS011;15704;48.834;8.736;2023-04-25T09:39:49;4.65;;;1.83;;
28483;SDS011;15704;48.834;8.736;2023-04-25T09:42:23;1.75;;;1.33;;
28483;SDS011;15704;48.834;8.736;2023-04-25T09:44:55;1.98;;;1.42;;
28483;SDS011;15704;48.834;8.736;2023-04-25T09:47:23;1.67;;;1.20;;
28483;SDS011;15704;48.834;8.736;2023-04-25T09:49:52;1.48;;;1.30;;
28483;SDS011;15704;48.834;8.736;2023-04-25T09:52:20;1.25;;;1.15;;
28483;SDS011;15704;48.834;8.736;2023-04-25T09:54:51;2.10;;;1.30;;
28483;SDS011;15704;48.834;8.736;2023-04-25T09:57:19;1.65;;;1.17;;
28483;SDS011;15704;48.834;8.736;2023-04-25T09:59:48;1.10;;;1.00;;
28483;SDS011;15704;48.834;8.736;2023-04-25T10:02:25;1.50;;;1.25;;
28483;SDS011;15704;48.834;8.736;2023-04-25T10:04:54;1.27;;;1.05;;
28483;SDS011;15704;48.834;8.736;2023-04-25T10:07:23;0.80;;;0.80;;
28483;SDS011;15704;48.834;8.736;2023-04-25T10:09:58;0.70;;;0.70;;
28483;SDS011;15704;48.834;8.736;2023-04-25T10:12:30;0.93;;;0.68;;
28483;SDS011;15704;48.834;8.736;2023-04-25T10:14:59;0.98;;;0.50;;
28483;SDS011;15704;48.834;8.736;2023-04-25T10:17:27;0.68;;;0.60;;
28483;SDS011;15704;48.834;8.736;2023-04-25T10:19:54;0.90;;;0.55;;
28483;SDS011;15704;48.834;8.736;2023-04-25T10:22:38;0.40;;;0.40;;
28483;SDS011;15704;48.834;8.736;2023-04-25T10:25:08;0.88;;;0.80;;
28483;SDS011;15704;48.834;8.736;2023-04-25T10:27:36;0.80;;;0.50;;
28483;SDS011;15704;48.834;8.736;2023-04-25T10:30:13;4.10;;;2.88;;
28483;SDS011;15704;48.834;8.736;2023-04-25T10:32:42;6.50;;;2.70;;
28483;SDS011;15704;48.834;8.736;2023-04-25T10:35:10;5.80;;;2.42;;
28483;SDS011;15704;48.834;8.736;2023-04-25T10:37:38;3.35;;;2.42;;
28483;SDS011;15704;48.834;8.736;2023-04-25T10:40:09;3.10;;;2.67;;
28483;SDS011;15704;48.834;8.736;2023-04-25T10:42:36;5.78;;;3.08;;
28483;SDS011;15704;48.834;8.736;2023-04-25T10:45:06;7.03;;;4.55;;
28483;SDS011;15704;48.834;8.736;2023-04-25T10:47:34;6.70;;;4.28;;
28483;SDS011;15704;48.834;8.736;2023-04-25T10:50:08;8.43;;;4.82;;
28483;SDS011;15704;48.834;8.736;2023-04-25T10:52:36;8.65;;;5.30;;
28483;SDS011;15704;48.834;8.736;2023-04-25T10:55:05;10.10;;;6.28;;
28483;SDS011;15704;48.834;8.736;2023-04-25T10:57:42;11.30;;;6.80;;
28483;SDS011;15704;48.834;8.736;2023-04-25T11:00:13;13.25;;;7.72;;
28483;SDS011;15704;48.834;8.736;2023-04-25T11:05:22;11.52;;;7.13;;
28483;SDS011;15704;48.834;8.736;2023-04-25T11:08:00;13.05;;;7.18;;
28483;SDS011;15704;48.834;8.736;2023-04-25T11:10:33;6.72;;;4.25;;
28483;SDS011;15704;48.834;8.736;2023-04-25T11:13:03;6.20;;;4.45;;
28483;SDS011;15704;48.834;8.736;2023-04-25T11:15:31;9.85;;;4.72;;
28483;SDS011;15704;48.834;8.736;2023-04-25T11:17:57;5.40;;;3.85;;
28483;SDS011;15704;48.834;8.736;2023-04-25T11:20:25;6.13;;;4.78;;
28483;SDS011;15704;48.834;8.736;2023-04-25T11:22:57;7.20;;;5.03;;
28483;SDS011;15704;48.834;8.736;2023-04-25T11:25:26;5.50;;;4.25;;
28483;SDS011;15704;48.834;8.736;2023-04-25T11:27:53;6.13;;;3.55;;
28483;SDS011;15704;48.834;8.736;2023-04-25T11:30:24;6.07;;;3.88;;
28483;SDS011;15704;48.834;8.736;2023-04-25T11:32:52;5.07;;;3.28;;
28483;SDS011;15704;48.834;8.736;2023-04-25T11:35:19;5.95;;;3.03;;
28483;SDS011;15704;48.834;8.736;2023-04-25T11:37:49;4.78;;;3.00;;
28483;SDS011;15704;48.834;8.736;2023-04-25T11:40:16;3.15;;;2.00;;
28483;SDS011;15704;48.834;8.736;2023-04-25T11:42:44;5.55;;;3.47;;
28483;SDS011;15704;48.834;8.736;2023-04-25T11:45:12;4.47;;;2.97;;
28483;SDS011;15704;48.834;8.736;2023-04-25T11:47:40;5.53;;;3.78;;
28483;SDS011;15704;48.834;8.736;2023-04-25T11:50:07;7.82;;;4.53;;
28483;SDS011;15704;48.834;8.736;2023-04-25T11:52:41;5.78;;;3.05;;
28483;SDS011;15704;48.834;8.736;2023-04-25T11:55:10;1.92;;;1.60;;
28483;SDS011;15704;48.834;8.736;2023-04-25T11:57:43;1.75;;;1.65;;
28483;SDS011;15704;48.834;8.736;2023-04-25T12:00:13;2.58;;;2.30;;
28483;SDS011;15704;48.834;8.736;2023-04-25T12:02:53;16.70;;;6.40;;
28483;SDS011;15704;48.834;8.736;2023-04-25T12:05:26;11.52;;;5.57;;
28483;SDS011;15704;48.834;8.736;2023-04-25T12:08:17;1.65;;;1.30;;
28483;SDS011;15704;48.834;8.736;2023-04-25T12:10:44;3.17;;;2.17;;
28483;SDS011;15704;48.834;8.736;2023-04-25T12:13:22;2.90;;;1.88;;
28483;SDS011;15704;48.834;8.736;2023-04-25T12:15:51;3.08;;;1.80;;
28483;SDS011;15704;48.834;8.736;2023-04-25T12:18:20;3.88;;;3.08;;
28483;SDS011;15704;48.834;8.736;2023-04-25T12:20:50;8.20;;;4.03;;
28483;SDS011;15704;48.834;8.736;2023-04-25T12:23:26;4.70;;;2.33;;
28483;SDS011;15704;48.834;8.736;2023-04-25T12:25:54;8.32;;;3.75;;
28483;SDS011;15704;48.834;8.736;2023-04-25T12:28:22;5.60;;;2.50;;
28483;SDS011;15704;48.834;8.736;2023-04-25T12:31:00;9.75;;;3.95;;
28483;SDS011;15704;48.834;8.736;2023-04-25T12:33:32;6.72;;;3.83;;
28483;SDS011;15704;48.834;8.736;2023-04-25T12:36:06;6.82;;;4.20;;
28483;SDS011;15704;48.834;8.736;2023-04-25T12:38:39;9.57;;;5.82;;
28483;SDS011;15704;48.834;8.736;2023-04-25T12:41:07;7.60;;;4.97;;
28483;SDS011;15704;48.834;8.736;2023-04-25T12:43:43;9.02;;;6.00;;
28483;SDS011;15704;48.834;8.736;2023-04-25T12:46:09;7.80;;;4.57;;
28483;SDS011;15704;48.834;8.736;2023-04-25T12:48:36;7.70;;;5.50;;
28483;SDS011;15704;48.834;8.736;2023-04-25T12:51:04;14.07;;;5.68;;
28483;SDS011;15704;48.834;8.736;2023-04-25T12:53:32;11.75;;;5.85;;
28483;SDS011;15704;48.834;8.736;2023-04-25T12:56:00;8.75;;;5.80;;
28483;SDS011;15704;48.834;8.736;2023-04-25T12:58:27;10.65;;;5.95;;
28483;SDS011;15704;48.834;8.736;2023-04-25T13:00:54;11.35;;;6.20;;
28483;SDS011;15704;48.834;8.736;2023-04-25T13:03:21;9.52;;;5.78;;
28483;SDS011;15704;48.834;8.736;2023-04-25T13:05:52;9.77;;;5.05;;
28483;SDS011;15704;48.834;8.736;2023-04-25T13:08:19;7.07;;;5.05;;
28483;SDS011;15704;48.834;8.736;2023-04-25T13:10:45;10.65;;;5.13;;
28483;SDS011;15704;48.834;8.736;2023-04-25T13:13:13;11.07;;;4.28;;
28483;SDS011;15704;48.834;8.736;2023-04-25T13:15:40;6.05;;;3.75;;
28483;SDS011;15704;48.834;8.736;2023-04-25T13:18:07;6.45;;;3.63;;
28483;SDS011;15704;48.834;8.736;2023-04-25T13:20:34;7.05;;;4.10;;
28483;SDS011;15704;48.834;8.736;2023-04-25T13:23:01;5.28;;;3.30;;
28483;SDS011;15704;48.834;8.736;2023-04-25T13:25:28;7.03;;;3.60;;
28483;SDS011;15704;48.834;8.736;2023-04-25T13:27:55;6.28;;;4.25;;
28483;SDS011;15704;48.834;8.736;2023-04-25T13:30:22;6.53;;;3.47;;
28483;SDS011;15704;48.834;8.736;2023-04-25T13:32:48;5.55;;;3.25;;
28483;SDS011;15704;48.834;8.736;2023-04-25T13:35:16;6.53;;;3.63;;
28483;SDS011;15704;48.834;8.736;2023-04-25T13:37:43;5.90;;;4.07;;
28483;SDS011;15704;48.834;8.736;2023-04-25T13:40:10;5.40;;;3.47;;
28483;SDS011;15704;48.834;8.736;2023-04-25T13:42:37;7.55;;;4.38;;
28483;SDS011;15704;48.834;8.736;2023-04-25T13:45:06;7.30;;;4.65;;
28483;SDS011;15704;48.834;8.736;2023-04-25T13:47:34;7.35;;;4.00;;
28483;SDS011;15704;48.834;8.736;2023-04-25T13:50:01;8.38;;;3.63;;
28483;SDS011;15704;48.834;8.736;2023-04-25T13:52:29;9.93;;;3.97;;
28483;SDS011;15704;48.834;8.736;2023-04-25T13:54:56;3.97;;;3.00;;
28483;SDS011;15704;48.834;8.736;2023-04-25T13:57:22;3.55;;;2.40;;
28483;SDS011;15704;48.834;8.736;2023-04-25T13:59:52;4.32;;;2.65;;
28483;SDS011;15704;48.834;8.736;2023-04-25T14:02:19;3.65;;;2.58;;
28483;SDS011;15704;48.834;8.736;2023-04-25T14:04:46;6.03;;;2.50;;
28483;SDS011;15704;48.834;8.736;2023-04-25T14:07:13;3.33;;;2.20;;
28483;SDS011;15704;48.834;8.736;2023-04-25T14:09:44;2.38;;;1.92;;
28483;SDS011;15704;48.834;8.736;2023-04-25T14:12:10;4.28;;;2.35;;
28483;SDS011;15704;48.834;8.736;2023-04-25T14:14:37;2.30;;;1.88;;
28483;SDS011;15704;48.834;8.736;2023-04-25T14:17:04;2.13;;;1.90;;
28483;SDS011;15704;48.834;8.736;2023-04-25T14:19:32;3.67;;;2.10;;
28483;SDS011;15704;48.834;8.736;2023-04-25T14:22:04;3.10;;;1.52;;
28483;SDS011;15704;48.834;8.736;2023-04-25T14:24:31;4.85;;;2.60;;
28483;SDS011;15704;48.834;8.736;2023-04-25T14:26:58;3.17;;;2.13;;
28483;SDS011;15704;48.834;8.736;2023-04-25T14:29:25;2.83;;;1.83;;
28483;SDS011;15704;48.834;8.736;2023-04-25T14:31:52;3.60;;;1.60;;
28483;SDS011;15704;48.834;8.736;2023-04-25T14:34:19;2.28;;;1.50;;
28483;SDS011;15704;48.834;8.736;2023-04-25T14:36:46;2.83;;;1.70;;
28483;SDS011;15704;48.834;8.736;2023-04-25T14:39:13;4.55;;;2.40;;
28483;SDS011;15704;48.834;8.736;2023-04-25T14:41:40;4.82;;;2.50;;
28483;SDS011;15704;48.834;8.736;2023-04-25T14:44:07;2.97;;;2.20;;
28483;SDS011;15704;48.834;8.736;2023-04-25T14:46:34;2.80;;;1.98;;
28483;SDS011;15704;48.834;8.736;2023-04-25T14:49:04;5.15;;;2.65;;
28483;SDS011;15704;48.834;8.736;2023-04-25T14:51:31;3.30;;;2.30;;
28483;SDS011;15704;48.834;8.736;2023-04-25T14:53:58;4.43;;;2.63;;
28483;SDS011;15704;48.834;8.736;2023-04-25T14:56:24;8.38;;;4.53;;
28483;SDS011;15704;48.834;8.736;2023-04-25T14:58:51;5.82;;;3.85;;
28483;SDS011;15704;48.834;8.736;2023-04-25T15:01:27;9.15;;;3.53;;
28483;SDS011;15704;48.834;8.736;2023-04-25T15:03:54;8.00;;;3.20;;